Long Point, Illinois
Current Conditions -  °F | °C
As of 2:15 PM on Monday 24 Nov 2014 (Local Time) from KPNT Reporting Station
Overcast Overcast  
Wind Chill: -8°   Ceiling: 1400
Heat Index:   Visibility: 10mi
Dew Point: -1°   Wind: 29mph
Humidity: 90%   Direction: 250°WSW
Pressure: 29.58"   Gusts: 37mph
Location:  41°N, 88.89°W
Report Text: KPNT 242015Z AUTO 25025G32KT 10SM OVC014 00/M01 A2958 RMK AO2 T00021012
Loading
Personal Weather Stations






























Interactive Weather Map New forecast layout! Learn more

10-Day Weather Forecast

Advertisements
Track Severe Weather on mobile